To NAV CANADA Home Page Login to a new session Search on AWWS site Feedback and Comments Disclaimer Vers la page française équivalente Tips FAQ What's new on the site To the Forecasts and Observations / NOTAM section To "File a Flight Plan" website Publications and other links Update of the User's profile FIC Telephone Numbers My Weather Data Folder Route Weather Data Regional Weather Data Local Weather Data To the Forecasts and Observations / NOTAM section
Request Generated 03/03/2015 at 12:38:39 UTC . Weather information available at that time is displayed.

METAR/TAF

SWIFT CURRENT/SK    (show WxCam)

METAR CYYN 031200Z AUTO 32017G23KT 9SM OVC032 M18/M22 A3009 RMK
SLP252=
SPECI CYYN 031148Z AUTO 31021G26KT 6SM HZ OVC032 M18/M22 A3009 RMK
SLP251=
SPECI CYYN 031139Z AUTO 32023KT 5SM HZ OVC032 M18/M21 A3008 RMK
SLP249=
SPECI CYYN 031138Z AUTO 32024KT 6SM HZ OVC032 M18/M22 A3008 RMK
SLP249=
SPECI CYYN 031137Z AUTO 32022G27KT 6SM -SN OVC032 M18/M21 A3008 RMK
SLP249=
METAR CYYN 031100Z AUTO 31020G25KT 4SM -SN FEW021 OVC036 M18/M21
A3009 RMK SLP251=
SPECI CYYN 031057Z AUTO 32017G25KT 3SM -SN SCT021 OVC036 M18/M21
A3009 RMK VIS VRB 1 3/4-3 SLP252=
SPECI CYYN 031055Z AUTO 31016G25KT 2 1/2SM -SN SCT021 OVC036 M18/M21
A3009 RMK VIS VRB 1 1/2-3 SLP252=
SPECI CYYN 031044Z AUTO 31015G20KT 2SM -SN FEW023 OVC036 M18/M20
A3010 RMK SLP253=
SPECI CYYN 031040Z AUTO 30015G20KT 2 1/4SM -SN FEW025 OVC036 M18/M20
A3010 RMK SLP253=
SPECI CYYN 031032Z AUTO 31014KT 5SM -SN FEW025 OVC034 M18/M20 A3010
RMK SLP255=
SPECI CYYN 031030Z AUTO 31014KT 7SM -SN FEW025 OVC034 M18/M20 A3010
RMK SLP254=
METAR CYYN 031000Z AUTO 31014KT 9SM OVC032 M18/M21 A3010 RMK SLP255=

TAF CYYN 031138Z 0312/0324 32015G30KT P6SM FEW020 BKN030 TEMPO
0312/0324 2SM -SN BLSN BKN020
RMK FCST BASED ON AUTO OBS. NXT FCST BY 031800Z=
Your time UTC time
Weather data provided by Environment Canada and NAV CANADA